Sea Hog — WDC7997 — position and weather

sailwx.info

Track history (hours):
 
Tides and Currents Weather Stations Pressure Air Temp Water Temp Dewpoint Dewpoint Depression Visibility Wind Speed Wind Dir Waves Ship Positions

Sea Hog

Owner: GARBER BROS INC., MORGAN CITY, LA. More information available from US FCC via Universal Licensing System and Coast Guard Vessel Documentation Center.

Last reported at 2017-Oct-17 23:43 UTC. Time now 2017-Nov-19 21:46 UTC.
Position N 29°32' W 090°48'.
Warning: this ship's position is 32 days out of date.

Length 19 m; draft 3 m.

Type: Towing. MMSI: 367080090.

Date/timePositionNaut miles runAvg speedWind from/ knotsBaromVisibWave heightAir tempDewpointWater temp
2017-Oct-17 23:43N 29°32' W 090°48'2 9.3
2017-Oct-17 23:29N 29°32' W 090°46'3 6.9
2017-Oct-17 23:01N 29°34' W 090°43'3 6.5
2017-Oct-17 22:30N 29°31' W 090°43'  
2017-Oct-14 21:35N 29°29' W 090°43'1 8.3
2017-Oct-14 21:30N 29°30' W 090°43'4 7.5
2017-Oct-14 21:00N 29°34' W 090°43'2 4.7
2017-Oct-14 20:30N 29°33' W 090°45'4 0.4
2017-Oct-14 10:07N 29°32' W 090°50'1 8.5
2017-Oct-14 10:00N 29°32' W 090°49'4 7.1
2017-Oct-14 09:30N 29°34' W 090°45'2 4.6
2017-Oct-14 09:00N 29°33' W 090°42'4 7.8
2017-Oct-14 08:30N 29°29' W 090°43'  
Track history (hours):
 
Tides and Currents Weather Stations Pressure Air Temp Water Temp Dewpoint Dewpoint Depression Visibility Wind Speed Wind Dir Waves Ship Positions

Sea Hog

Owner: GARBER BROS INC., MORGAN CITY, LA. More information available from US FCC via Universal Licensing System and Coast Guard Vessel Documentation Center.

Last reported at 2017-Oct-17 23:43 UTC. Time now 2017-Nov-19 21:46 UTC.
Position N 29°32' W 090°48'.
Warning: this ship's position is 32 days out of date.

Length 19 m; draft 3 m.

Type: Towing. MMSI: 367080090.

Date/timePositionNaut miles runAvg speedWind from/ knotsBaromVisibWave heightAir tempDewpointWater temp
2017-Oct-17 23:43N 29°32' W 090°48'2 9.3
2017-Oct-17 23:29N 29°32' W 090°46'3 6.9
2017-Oct-17 23:01N 29°34' W 090°43'3 6.5
2017-Oct-17 22:30N 29°31' W 090°43'  
2017-Oct-14 21:35N 29°29' W 090°43'1 8.3
2017-Oct-14 21:30N 29°30' W 090°43'4 7.5
2017-Oct-14 21:00N 29°34' W 090°43'2 4.7
2017-Oct-14 20:30N 29°33' W 090°45'4 0.4
2017-Oct-14 10:07N 29°32' W 090°50'1 8.5
2017-Oct-14 10:00N 29°32' W 090°49'4 7.1
2017-Oct-14 09:30N 29°34' W 090°45'2 4.6
2017-Oct-14 09:00N 29°33' W 090°42'4 7.8
2017-Oct-14 08:30N 29°29' W 090°43'  

Dump ship's entire track history